Aviation Digital Data Service (ADDS)

Output produced by METARs form (2357 UTC 25 June 2019)
found at http://aviationweather.gov/metar/data/
 
KMSY 252329Z 2600/2706 19004KT P6SM SCT035 OVC250 
     FM260200 VRB05KT P6SM BKN050 
     FM261200 11005KT P6SM BKN110